createdAt,value
2018-09-13T00:01:05.511Z,2.50
2018-09-13T00:03:33.259Z,2.10
2018-09-13T00:06:00.952Z,2.40
2018-09-13T00:08:28.811Z,2.22
2018-09-13T00:10:56.333Z,2.47
2018-09-13T00:13:24.097Z,2.50
2018-09-13T00:15:51.836Z,2.43
2018-09-13T00:18:19.377Z,2.50
2018-09-13T00:20:46.901Z,2.37
2018-09-13T00:23:14.580Z,2.35
2018-09-13T00:25:42.078Z,2.40
2018-09-13T00:28:09.563Z,2.70
2018-09-13T00:30:37.108Z,2.60
2018-09-13T00:33:04.583Z,2.80
2018-09-13T00:35:32.141Z,2.60
2018-09-13T00:37:59.642Z,2.55
2018-09-13T00:40:27.401Z,2.80
2018-09-13T00:42:54.946Z,2.50
2018-09-13T00:45:22.496Z,2.62
2018-09-13T00:47:50.364Z,2.70
2018-09-13T00:50:17.840Z,2.60
2018-09-13T00:52:45.595Z,2.80
2018-09-13T00:55:13.043Z,2.80
2018-09-13T00:57:40.541Z,2.60
2018-09-13T01:00:08.336Z,2.77
2018-09-13T01:02:36.241Z,2.83
2018-09-13T01:05:03.789Z,3.00
2018-09-13T01:07:31.764Z,2.87
2018-09-13T01:09:59.866Z,3.20
2018-09-13T01:12:27.624Z,3.10
2018-09-13T01:14:55.157Z,2.80
2018-09-13T01:17:22.924Z,3.20
2018-09-13T01:19:50.428Z,3.25
2018-09-13T01:22:18.347Z,3.33
2018-09-13T01:24:45.805Z,3.20
2018-09-13T01:27:13.336Z,3.30
2018-09-13T01:29:40.844Z,3.77
2018-09-13T01:32:08.349Z,3.58
2018-09-13T01:34:35.863Z,4.00
2018-09-13T01:37:03.808Z,3.57
2018-09-13T01:39:31.298Z,3.90
2018-09-13T01:41:59.144Z,4.00
2018-09-13T01:44:26.623Z,4.25
2018-09-13T01:46:54.160Z,3.92
2018-09-13T01:49:21.647Z,4.90
2018-09-13T01:51:49.072Z,4.40
2018-09-13T01:54:17.148Z,4.70
2018-09-13T01:56:44.908Z,4.78
2018-09-13T01:59:12.567Z,4.90
2018-09-13T02:01:40.341Z,5.10
2018-09-13T02:04:07.892Z,8.65
2018-09-13T02:06:35.416Z,10.30
2018-09-13T02:09:03.082Z,5.92
2018-09-13T02:11:30.578Z,9.08
2018-09-13T02:13:58.080Z,7.15
2018-09-13T02:16:25.536Z,8.70
2018-09-13T02:18:53.051Z,8.60
2018-09-13T02:21:20.511Z,8.60
2018-09-13T02:23:48.161Z,10.98
2018-09-13T02:26:15.949Z,11.30
2018-09-13T02:28:43.477Z,10.30
2018-09-13T02:31:11.013Z,12.80
2018-09-13T02:33:38.556Z,11.78
2018-09-13T02:36:06.061Z,9.25
2018-09-13T02:38:33.894Z,8.53
2018-09-13T02:41:01.388Z,9.30
2018-09-13T02:43:29.407Z,9.10
2018-09-13T02:45:56.942Z,10.35
2018-09-13T02:48:24.364Z,9.30
2018-09-13T02:50:51.867Z,10.20
2018-09-13T02:53:19.950Z,10.48
2018-09-13T02:55:47.826Z,10.15
2018-09-13T02:58:15.513Z,8.50
2018-09-13T03:00:43.669Z,8.80
2018-09-13T03:03:11.212Z,11.30
2018-09-13T03:05:38.919Z,10.18
2018-09-13T03:08:06.395Z,10.53
2018-09-13T03:10:33.887Z,10.18
2018-09-13T03:13:01.511Z,10.32
2018-09-13T03:15:28.962Z,9.50
2018-09-13T03:17:56.513Z,8.90
2018-09-13T03:20:24.413Z,10.28
2018-09-13T03:22:52.205Z,9.48
2018-09-13T03:25:19.708Z,10.95
2018-09-13T03:27:47.580Z,11.53
2018-09-13T03:30:15.511Z,10.80
2018-09-13T03:32:43.000Z,11.95
2018-09-13T03:35:10.543Z,11.93
2018-09-13T03:37:38.389Z,11.45
2018-09-13T03:40:05.907Z,12.20
2018-09-13T03:42:33.735Z,12.43
2018-09-13T03:45:01.314Z,12.10
2018-09-13T03:47:29.099Z,13.10
2018-09-13T03:49:56.918Z,12.37
2018-09-13T03:52:24.740Z,11.28
2018-09-13T03:54:52.562Z,11.33
2018-09-13T03:57:20.077Z,12.30
2018-09-13T03:59:47.613Z,12.28
2018-09-13T04:02:15.104Z,15.08
2018-09-13T04:04:42.883Z,11.20
2018-09-13T04:07:10.464Z,10.63
2018-09-13T04:09:38.688Z,11.65
2018-09-13T04:12:06.185Z,11.60
2018-09-13T04:14:34.124Z,12.90
2018-09-13T04:17:01.592Z,12.80
2018-09-13T04:19:41.705Z,12.18
2018-09-13T04:22:09.182Z,12.18
2018-09-13T04:24:37.084Z,12.20
2018-09-13T04:27:04.931Z,12.23
2018-09-13T04:29:32.751Z,11.48
2018-09-13T04:32:00.577Z,13.88
2018-09-13T04:34:28.060Z,12.78
2018-09-13T04:36:55.827Z,12.55
2018-09-13T04:39:23.356Z,12.50
2018-09-13T04:41:51.104Z,12.78
2018-09-13T04:44:19.021Z,11.95
2018-09-13T04:46:46.530Z,12.58
2018-09-13T04:49:14.443Z,13.25
2018-09-13T04:51:42.264Z,14.00
2018-09-13T04:54:10.331Z,12.88
2018-09-13T04:56:38.101Z,11.73
2018-09-13T04:59:05.758Z,12.10
2018-09-13T05:01:33.244Z,15.13
2018-09-13T05:04:00.980Z,11.70
2018-09-13T05:06:28.827Z,12.20
2018-09-13T05:08:56.315Z,11.90
2018-09-13T05:11:23.924Z,13.08
2018-09-13T05:13:51.616Z,11.45
2018-09-13T05:16:19.395Z,11.50
2018-09-13T05:18:46.873Z,11.68
2018-09-13T05:21:14.619Z,11.40
2018-09-13T05:23:42.796Z,11.80
2018-09-13T05:26:10.551Z,12.80
2018-09-13T05:28:38.304Z,12.28
2018-09-13T05:31:06.292Z,11.83
2018-09-13T05:33:33.848Z,12.55
2018-09-13T05:36:01.296Z,11.83
2018-09-13T05:38:29.142Z,10.93
2018-09-13T05:40:56.840Z,11.25
2018-09-13T05:43:24.746Z,11.35
2018-09-13T05:45:52.287Z,13.05
2018-09-13T05:48:20.053Z,12.75
2018-09-13T05:50:47.593Z,16.65
2018-09-13T05:53:15.091Z,11.95
2018-09-13T05:55:42.600Z,12.05
2018-09-13T05:58:10.132Z,12.88
2018-09-13T06:00:38.240Z,12.68
2018-09-13T06:03:06.014Z,11.70
2018-09-13T06:05:34.389Z,11.57
2018-09-13T06:08:01.961Z,11.48
2018-09-13T06:10:30.533Z,11.53
2018-09-13T06:12:58.292Z,10.53
2018-09-13T06:15:25.802Z,11.00
2018-09-13T06:17:53.724Z,10.60
2018-09-13T06:20:21.205Z,10.50
2018-09-13T06:22:48.933Z,9.40
2018-09-13T06:25:16.745Z,9.45
2018-09-13T06:27:44.425Z,9.40
2018-09-13T06:30:11.881Z,10.53
2018-09-13T06:32:39.364Z,10.90
2018-09-13T06:35:06.842Z,10.65
2018-09-13T06:37:34.357Z,9.90
2018-09-13T06:40:02.098Z,8.13
2018-09-13T06:42:30.291Z,8.80
2018-09-13T06:44:58.151Z,8.90
2018-09-13T06:47:25.637Z,9.45
2018-09-13T06:49:53.264Z,9.97
2018-09-13T06:52:20.989Z,10.90
2018-09-13T06:54:48.560Z,11.38
2018-09-13T06:57:16.528Z,11.28
2018-09-13T06:59:44.296Z,11.28
2018-09-13T07:02:11.817Z,10.30
2018-09-13T07:04:39.960Z,9.13
2018-09-13T07:07:07.593Z,8.75
2018-09-13T07:09:35.312Z,8.00
2018-09-13T07:12:03.149Z,8.30
2018-09-13T07:14:30.760Z,8.08
2018-09-13T07:16:58.677Z,8.07
2018-09-13T07:19:26.346Z,7.40
2018-09-13T07:21:54.683Z,8.85
2018-09-13T07:24:22.167Z,8.20
2018-09-13T07:26:49.604Z,6.93
2018-09-13T07:29:17.744Z,6.50
2018-09-13T07:31:46.232Z,5.42
2018-09-13T07:34:14.663Z,4.87
2018-09-13T07:36:43.278Z,4.90
2018-09-13T07:39:12.468Z,3.67
2018-09-13T07:41:40.096Z,3.67
2018-09-13T07:44:07.704Z,3.50
2018-09-13T07:46:35.886Z,4.30
2018-09-13T07:49:03.584Z,3.72
2018-09-13T07:51:31.480Z,2.90
2018-09-13T07:53:59.230Z,4.30
2018-09-13T07:56:26.913Z,3.58
2018-09-13T07:58:54.421Z,3.40
2018-09-13T08:01:22.212Z,2.92
2018-09-13T08:03:49.711Z,2.60
2018-09-13T08:06:17.307Z,2.90
2018-09-13T08:08:44.764Z,2.80
2018-09-13T08:11:12.331Z,2.70
2018-09-13T08:13:40.045Z,2.60
2018-09-13T08:16:07.921Z,2.30
2018-09-13T08:18:35.742Z,2.30
2018-09-13T08:21:03.452Z,2.60
2018-09-13T08:23:31.534Z,2.42
2018-09-13T08:25:59.365Z,2.45
2018-09-13T08:28:27.188Z,2.45
2018-09-13T08:30:54.803Z,2.20
2018-09-13T08:33:22.981Z,2.00
2018-09-13T08:35:50.516Z,2.30
2018-09-13T08:38:18.078Z,2.40
2018-09-13T08:40:46.543Z,2.60
2018-09-13T08:43:14.070Z,2.12
2018-09-13T08:45:41.968Z,2.35
2018-09-13T08:48:09.735Z,2.12
2018-09-13T08:50:38.017Z,2.17
2018-09-13T08:53:06.129Z,2.55
2018-09-13T08:55:33.960Z,2.50
2018-09-13T08:58:02.056Z,2.22
2018-09-13T09:00:30.112Z,2.80
2018-09-13T09:02:57.571Z,2.72
2018-09-13T09:05:25.377Z,2.40
2018-09-13T09:07:53.392Z,23.73
2018-09-13T09:10:21.071Z,2.70
2018-09-13T09:12:48.861Z,2.30
2018-09-13T09:15:16.581Z,2.13
2018-09-13T09:17:44.596Z,1.90
2018-09-13T09:20:12.055Z,9.60
2018-09-13T09:22:39.815Z,12.63
2018-09-13T09:25:07.330Z,2.20
2018-09-13T09:27:34.833Z,2.20
2018-09-13T09:30:02.694Z,2.20
2018-09-13T09:32:30.152Z,2.10
2018-09-13T09:34:57.804Z,2.10
2018-09-13T09:37:25.956Z,2.30
2018-09-13T09:39:53.496Z,2.50
2018-09-13T09:42:21.097Z,2.20
2018-09-13T09:44:48.940Z,1.87
2018-09-13T09:47:16.440Z,2.20
2018-09-13T09:49:43.976Z,2.20
2018-09-13T09:52:11.510Z,2.00
2018-09-13T09:54:39.259Z,2.00
2018-09-13T09:57:07.355Z,2.60
2018-09-13T09:59:35.170Z,2.67
2018-09-13T10:02:08.041Z,2.50
2018-09-13T10:04:36.033Z,2.10
2018-09-13T10:07:03.611Z,2.33
2018-09-13T10:09:31.120Z,1.70
2018-09-13T10:11:58.653Z,2.00
2018-09-13T10:14:26.262Z,1.95
2018-09-13T10:16:59.293Z,1.90
2018-09-13T10:20:36.915Z,2.00
2018-09-13T10:23:09.909Z,1.90
2018-09-13T10:25:43.700Z,2.30
2018-09-13T10:28:16.576Z,2.00
2018-09-13T10:30:49.351Z,2.30
2018-09-13T10:33:22.280Z,2.40
2018-09-13T10:35:55.400Z,2.00
2018-09-13T10:38:28.198Z,1.87
2018-09-13T10:41:01.826Z,1.80
2018-09-13T10:43:34.842Z,2.00
2018-09-13T10:46:08.260Z,1.70
2018-09-13T10:48:35.843Z,1.60
2018-09-13T10:51:08.837Z,2.00
2018-09-13T10:53:44.030Z,1.85
2018-09-13T10:56:12.503Z,2.12
2018-09-13T10:58:40.491Z,2.40
2018-09-13T11:01:08.068Z,1.90
2018-09-13T11:03:35.604Z,2.02
2018-09-13T11:06:03.255Z,2.50
2018-09-13T11:08:30.756Z,2.40
2018-09-13T11:10:58.496Z,2.17
2018-09-13T11:13:32.696Z,2.00
2018-09-13T11:16:00.323Z,2.75
2018-09-13T11:18:28.047Z,1.90
2018-09-13T11:20:55.521Z,1.77
2018-09-13T11:23:22.989Z,1.90
2018-09-13T11:25:50.641Z,2.12
2018-09-13T11:28:18.340Z,1.87
2018-09-13T11:30:50.249Z,2.20
2018-09-13T11:33:18.092Z,1.80
2018-09-13T11:35:45.936Z,1.70
2018-09-13T11:38:13.747Z,1.90
2018-09-13T11:40:41.550Z,2.00
2018-09-13T11:43:09.667Z,2.30
2018-09-13T11:45:37.272Z,2.45
2018-09-13T11:48:04.890Z,3.80
2018-09-13T11:50:33.149Z,4.17
2018-09-13T11:53:00.735Z,3.80
2018-09-13T11:55:28.813Z,3.25
2018-09-13T11:57:57.005Z,2.00
2018-09-13T12:00:25.357Z,2.95
2018-09-13T12:02:53.013Z,2.35
2018-09-13T12:05:21.648Z,1.70
2018-09-13T12:07:49.360Z,1.87
2018-09-13T12:10:17.399Z,1.92
2018-09-13T12:12:45.034Z,2.10
2018-09-13T12:15:12.806Z,2.10
2018-09-13T12:17:40.276Z,2.07
2018-09-13T12:20:07.792Z,2.47
2018-09-13T12:22:35.637Z,2.40
2018-09-13T12:25:03.564Z,1.90
2018-09-13T12:27:32.689Z,1.75
2018-09-13T12:30:00.351Z,1.90
2018-09-13T12:32:28.205Z,2.20
2018-09-13T12:34:56.279Z,2.10
2018-09-13T12:37:23.829Z,1.80
2018-09-13T12:39:51.324Z,1.70
2018-09-13T12:42:18.957Z,2.00
2018-09-13T12:44:46.668Z,2.20
2018-09-13T12:47:14.473Z,2.15
2018-09-13T12:49:41.977Z,2.00
2018-09-13T12:52:10.028Z,1.85
2018-09-13T12:54:38.145Z,3.05
2018-09-13T12:57:06.140Z,3.22
2018-09-13T12:59:33.894Z,3.15
2018-09-13T13:02:01.585Z,3.45
2018-09-13T13:04:29.258Z,2.85
2018-09-13T13:06:56.725Z,2.40
2018-09-13T13:09:24.311Z,3.35
2018-09-13T13:11:51.916Z,2.08
2018-09-13T13:14:19.635Z,2.20
2018-09-13T13:16:47.412Z,2.10
2018-09-13T13:19:14.949Z,2.63
2018-09-13T13:21:42.536Z,3.50
2018-09-13T13:24:10.653Z,2.85
2018-09-13T13:26:39.156Z,6.97
2018-09-13T13:29:07.348Z,2.50
2018-09-13T13:31:34.808Z,2.30
2018-09-13T13:34:02.751Z,2.40
2018-09-13T13:36:30.909Z,2.70
2018-09-13T13:38:58.804Z,2.10
2018-09-13T13:41:26.505Z,1.82
2018-09-13T13:43:53.991Z,2.08
2018-09-13T13:46:22.326Z,1.85
2018-09-13T13:48:50.911Z,2.03
2018-09-13T13:51:18.373Z,2.30
2018-09-13T13:53:46.028Z,2.10
2018-09-13T13:56:13.737Z,1.60
2018-09-13T13:58:41.288Z,1.98
2018-09-13T14:01:08.970Z,2.00
2018-09-13T14:03:36.748Z,1.85
2018-09-13T14:06:05.746Z,2.10
2018-09-13T14:08:33.428Z,1.72
2018-09-13T14:11:01.064Z,2.10
2018-09-13T14:13:28.785Z,2.00
2018-09-13T14:15:57.453Z,2.27
2018-09-13T14:18:25.632Z,1.77
2018-09-13T14:20:54.084Z,2.22
2018-09-13T14:23:21.739Z,2.30
2018-09-13T14:25:49.329Z,2.30
2018-09-13T14:28:17.638Z,2.25
2018-09-13T14:30:45.339Z,1.60
2018-09-13T14:33:13.133Z,1.90
2018-09-13T14:35:40.876Z,2.00
2018-09-13T14:38:08.577Z,1.60
2018-09-13T14:40:36.537Z,2.00
2018-09-13T14:43:04.547Z,1.80
2018-09-13T14:45:32.011Z,1.85
2018-09-13T14:47:59.772Z,3.23
2018-09-13T14:50:27.360Z,2.00
2018-09-13T14:52:56.194Z,2.00
2018-09-13T14:55:23.760Z,2.15
2018-09-13T14:57:51.843Z,2.80
2018-09-13T15:00:20.133Z,3.75
2018-09-13T15:02:47.722Z,2.00
2018-09-13T15:05:15.385Z,2.50
2018-09-13T15:07:43.490Z,2.77
2018-09-13T15:10:11.137Z,2.20
2018-09-13T15:12:39.737Z,2.00
2018-09-13T15:15:07.566Z,2.50
2018-09-13T15:17:35.432Z,2.60
2018-09-13T15:20:03.665Z,2.70
2018-09-13T15:22:31.084Z,3.37
2018-09-13T15:24:58.659Z,3.10
2018-09-13T15:27:27.028Z,2.12
2018-09-13T15:29:54.817Z,2.95
2018-09-13T15:32:23.767Z,1.60
2018-09-13T15:34:51.332Z,1.47
2018-09-13T15:39:11.704Z,2.30
2018-09-13T15:41:39.741Z,2.40
2018-09-13T15:44:07.347Z,2.30
2018-09-13T15:46:35.281Z,2.30
2018-09-13T15:49:02.821Z,2.00
2018-09-13T15:51:30.345Z,1.90
2018-09-13T15:53:58.431Z,1.98
2018-09-13T15:56:26.023Z,1.90
2018-09-13T15:58:54.231Z,1.97
2018-09-13T16:01:21.944Z,1.90
2018-09-13T16:03:50.696Z,1.67
2018-09-13T16:06:18.428Z,1.60
2018-09-13T16:08:46.552Z,1.80
2018-09-13T16:11:14.079Z,1.70
2018-09-13T16:13:42.364Z,1.60
2018-09-13T16:16:09.919Z,2.37
2018-09-13T16:18:38.116Z,2.90
2018-09-13T16:21:06.133Z,2.60
2018-09-13T16:23:33.688Z,2.10
2018-09-13T16:26:01.170Z,1.80
2018-09-13T16:28:29.117Z,1.90
2018-09-13T16:30:56.911Z,1.80
2018-09-13T16:33:24.913Z,1.90
2018-09-13T16:35:54.316Z,1.90
2018-09-13T16:38:31.251Z,1.50
2018-09-13T16:41:04.344Z,1.90
2018-09-13T16:44:14.017Z,1.80
2018-09-13T16:46:46.990Z,1.90
2018-09-13T16:49:15.059Z,1.87
2018-09-13T16:51:43.111Z,1.50
2018-09-13T16:54:11.060Z,1.40
2018-09-13T16:56:38.768Z,1.80
2018-09-13T16:59:07.812Z,2.70
2018-09-13T17:01:35.372Z,2.85
2018-09-13T17:04:03.931Z,3.90
2018-09-13T17:06:31.448Z,4.30
2018-09-13T17:08:58.956Z,4.20
2018-09-13T17:11:26.638Z,3.03
2018-09-13T17:13:55.275Z,2.60
2018-09-13T17:16:22.806Z,2.70
2018-09-13T17:18:50.487Z,2.10
2018-09-13T17:21:18.543Z,1.50
2018-09-13T17:23:46.709Z,1.82
2018-09-13T17:26:14.308Z,1.80
2018-09-13T17:28:41.932Z,1.52
2018-09-13T17:31:10.067Z,2.50
2018-09-13T17:33:38.055Z,2.10
2018-09-13T17:36:05.643Z,1.50
2018-09-13T17:38:33.078Z,4.65
2018-09-13T17:41:00.589Z,2.20
2018-09-13T17:43:28.234Z,2.10
2018-09-13T17:45:55.926Z,1.60
2018-09-13T17:48:23.638Z,1.50
2018-09-13T17:50:51.317Z,1.70
2018-09-13T17:53:20.750Z,1.60
2018-09-13T17:55:48.574Z,1.30
2018-09-13T17:58:16.045Z,1.60
2018-09-13T18:00:43.597Z,2.25
2018-09-13T18:03:11.526Z,1.80
2018-09-13T18:05:39.257Z,2.80
2018-09-13T18:08:06.668Z,3.22
2018-09-13T18:10:34.684Z,4.90
2018-09-13T18:13:02.449Z,5.80
2018-09-13T18:15:30.228Z,4.25
2018-09-13T18:17:57.996Z,2.40
2018-09-13T18:20:26.539Z,2.40
2018-09-13T18:22:54.145Z,1.73
2018-09-13T18:25:22.733Z,2.20
2018-09-13T18:27:50.824Z,2.50
2018-09-13T18:30:18.525Z,4.30
2018-09-13T18:32:46.213Z,4.67
2018-09-13T18:35:13.896Z,5.37
2018-09-13T18:37:41.644Z,5.70
2018-09-13T18:40:09.217Z,6.20
2018-09-13T18:42:37.589Z,6.40
2018-09-13T18:45:05.378Z,5.53
2018-09-13T18:47:32.842Z,5.60
2018-09-13T18:50:00.255Z,4.50
2018-09-13T18:52:28.148Z,4.20
2018-09-13T18:54:55.623Z,4.50
2018-09-13T18:57:23.331Z,4.20
2018-09-13T18:59:50.772Z,3.40
2018-09-13T19:02:18.408Z,3.70
2018-09-13T19:04:46.021Z,2.90
2018-09-13T19:07:13.916Z,2.90
2018-09-13T19:09:42.180Z,2.90
2018-09-13T19:12:10.380Z,2.50
2018-09-13T19:14:37.953Z,2.33
2018-09-13T19:17:06.270Z,2.60
2018-09-13T19:19:34.280Z,2.50
2018-09-13T19:22:02.044Z,2.70
2018-09-13T19:24:29.522Z,2.95
2018-09-13T19:26:57.284Z,2.60
2018-09-13T19:29:25.052Z,2.60
2018-09-13T19:31:52.570Z,2.80
2018-09-13T19:34:20.367Z,2.27
2018-09-13T19:36:48.141Z,2.50
2018-09-13T19:39:15.741Z,2.70
2018-09-13T19:41:43.722Z,2.60
2018-09-13T19:44:11.202Z,2.60
2018-09-13T19:46:38.726Z,2.30
2018-09-13T19:49:06.273Z,2.92
2018-09-13T19:51:33.922Z,3.30
2018-09-13T19:54:01.637Z,2.92
2018-09-13T19:56:29.468Z,3.08
2018-09-13T19:58:57.257Z,3.72
2018-09-13T20:01:24.779Z,3.15
2018-09-13T20:03:52.291Z,2.60
2018-09-13T20:06:19.807Z,2.50
2018-09-13T20:08:47.536Z,2.60
2018-09-13T20:11:15.292Z,2.60
2018-09-13T20:13:42.760Z,2.87
2018-09-13T20:16:10.517Z,2.83
2018-09-13T20:18:38.378Z,2.77
2018-09-13T20:21:06.427Z,2.20
2018-09-13T20:23:33.901Z,2.30
2018-09-13T20:26:01.684Z,2.62
2018-09-13T20:28:29.238Z,2.35
2018-09-13T20:30:56.711Z,2.40
2018-09-13T20:33:24.461Z,2.33
2018-09-13T20:35:52.262Z,2.13
2018-09-13T20:38:19.812Z,2.00
2018-09-13T20:40:47.325Z,2.60
2018-09-13T20:43:15.311Z,2.52
2018-09-13T20:45:42.861Z,2.45
2018-09-13T20:48:10.539Z,2.52
2018-09-13T20:50:38.213Z,2.10
2018-09-13T20:53:05.689Z,2.00
2018-09-13T20:55:33.214Z,2.20
2018-09-13T20:58:01.052Z,2.27
2018-09-13T21:00:28.512Z,2.00
2018-09-13T21:02:56.313Z,2.60
2018-09-13T21:05:24.117Z,2.00
2018-09-13T21:07:52.156Z,2.27
2018-09-13T21:10:20.015Z,2.75
2018-09-13T21:12:48.080Z,2.10
2018-09-13T21:15:15.593Z,2.50
2018-09-13T21:17:43.120Z,2.40
2018-09-13T21:20:10.666Z,2.20
2018-09-13T21:22:38.113Z,2.50
2018-09-13T21:25:05.689Z,2.30
2018-09-13T21:27:33.752Z,2.45
2018-09-13T21:30:01.264Z,2.40
2018-09-13T21:32:28.725Z,2.20
2018-09-13T21:34:56.280Z,2.10
2018-09-13T21:37:23.813Z,2.20
2018-09-13T21:39:51.321Z,2.20
2018-09-13T21:42:19.113Z,2.60
2018-09-13T21:44:46.585Z,2.35
2018-09-13T21:47:14.145Z,2.30
2018-09-13T21:49:41.972Z,2.33
2018-09-13T21:52:09.489Z,2.90
2018-09-13T21:54:37.224Z,2.60
2018-09-13T21:57:05.215Z,2.17
2018-09-13T21:59:32.688Z,2.25
2018-09-13T22:02:00.159Z,2.80
2018-09-13T22:04:27.612Z,2.37
2018-09-13T22:06:55.433Z,2.35
2018-09-13T22:09:22.914Z,2.50
2018-09-13T22:11:50.453Z,2.30
2018-09-13T22:14:17.969Z,2.50
2018-09-13T22:16:45.489Z,2.40
2018-09-13T22:19:12.943Z,2.30
2018-09-13T22:21:40.371Z,2.52
2018-09-13T22:24:07.893Z,2.70
2018-09-13T22:26:35.880Z,2.83
2018-09-13T22:29:03.500Z,2.50
2018-09-13T22:31:31.061Z,2.90
2018-09-13T22:33:58.523Z,2.40
2018-09-13T22:36:26.627Z,2.50
2018-09-13T22:38:54.464Z,2.90
2018-09-13T22:41:22.191Z,2.55
2018-09-13T22:43:50.827Z,2.60
2018-09-13T22:46:18.854Z,2.87
2018-09-13T22:48:46.673Z,2.90
2018-09-13T22:51:14.206Z,3.10
2018-09-13T22:53:41.780Z,2.90
2018-09-13T22:56:09.225Z,3.15
2018-09-13T22:58:36.955Z,2.70
2018-09-13T23:01:04.724Z,2.70
2018-09-13T23:03:32.588Z,3.00
2018-09-13T23:06:00.118Z,3.00
2018-09-13T23:08:27.618Z,2.98
2018-09-13T23:10:55.584Z,2.67
2018-09-13T23:13:23.404Z,3.12
2018-09-13T23:15:51.232Z,3.00
2018-09-13T23:18:18.751Z,2.90
2018-09-13T23:20:46.303Z,3.15
2018-09-13T23:23:13.845Z,2.80
2018-09-13T23:25:41.697Z,3.70
2018-09-13T23:28:09.203Z,2.40
2018-09-13T23:30:36.664Z,2.85
2018-09-13T23:33:04.183Z,2.40
2018-09-13T23:35:31.700Z,3.02
2018-09-13T23:37:59.221Z,2.80
2018-09-13T23:40:26.995Z,2.50
2018-09-13T23:42:54.344Z,3.23
2018-09-13T23:45:21.882Z,3.87
2018-09-13T23:47:49.705Z,4.65
2018-09-13T23:50:18.073Z,2.67
2018-09-13T23:52:45.918Z,3.50
2018-09-13T23:55:13.706Z,2.85
2018-09-13T23:57:41.190Z,3.00
